createdAt,value
2018-06-01T00:00:59.181Z,21.50
2018-06-01T00:03:27.501Z,21.40
2018-06-01T00:05:55.030Z,21.40
2018-06-01T00:08:23.382Z,21.40
2018-06-01T00:10:50.914Z,21.40
2018-06-01T00:13:18.466Z,21.30
2018-06-01T00:15:45.992Z,21.30
2018-06-01T00:18:14.289Z,21.20
2018-06-01T00:20:41.816Z,21.10
2018-06-01T00:23:10.132Z,21.20
2018-06-01T00:25:37.676Z,21.10
2018-06-01T00:28:05.229Z,21.10
2018-06-01T00:30:32.760Z,21.00
2018-06-01T00:33:00.295Z,21.00
2018-06-01T00:35:27.818Z,21.00
2018-06-01T00:37:55.356Z,21.00
2018-06-01T00:40:23.647Z,21.00
2018-06-01T00:42:51.224Z,21.00
2018-06-01T00:45:18.740Z,21.00
2018-06-01T00:47:46.283Z,21.00
2018-06-01T00:50:13.807Z,21.00
2018-06-01T00:52:41.386Z,21.00
2018-06-01T00:55:20.824Z,21.00
2018-06-01T00:57:48.364Z,20.90
2018-06-01T01:00:15.886Z,20.90
2018-06-01T01:02:43.441Z,20.80
2018-06-01T01:05:10.990Z,20.90
2018-06-01T01:07:38.571Z,20.80
2018-06-01T01:10:06.879Z,20.80
2018-06-01T01:12:34.402Z,20.80
2018-06-01T01:15:01.944Z,20.70
2018-06-01T01:17:29.470Z,20.70
2018-06-01T01:19:57.020Z,20.60
2018-06-01T01:22:24.552Z,20.50
2018-06-01T01:24:52.852Z,20.60
2018-06-01T01:27:20.379Z,20.60
2018-06-01T01:29:47.913Z,20.60
2018-06-01T01:32:15.436Z,20.50
2018-06-01T01:34:42.975Z,20.50
2018-06-01T01:37:11.289Z,20.40
2018-06-01T01:39:38.832Z,20.40
2018-06-01T01:42:06.354Z,20.40
2018-06-01T01:44:33.896Z,20.40
2018-06-01T01:47:01.438Z,20.30
2018-06-01T01:49:28.987Z,20.40
2018-06-01T01:51:56.527Z,20.30
2018-06-01T01:54:24.112Z,20.20
2018-06-01T01:56:51.616Z,20.10
2018-06-01T01:59:19.926Z,20.00
2018-06-01T02:01:47.456Z,20.00
2018-06-01T02:04:15.012Z,19.90
2018-06-01T02:06:42.533Z,19.90
2018-06-01T02:09:10.072Z,19.80
2018-06-01T02:11:37.611Z,19.70
2018-06-01T02:14:05.916Z,19.60
2018-06-01T02:16:33.465Z,19.50
2018-06-01T02:19:01.007Z,19.50
2018-06-01T02:21:29.306Z,19.50
2018-06-01T02:23:56.853Z,19.50
2018-06-01T02:26:24.392Z,19.50
2018-06-01T02:28:51.920Z,19.50
2018-06-01T02:31:19.480Z,19.50
2018-06-01T02:33:47.004Z,19.50
2018-06-01T02:36:14.551Z,19.40
2018-06-01T02:38:42.862Z,19.40
2018-06-01T02:41:10.411Z,19.40
2018-06-01T02:43:37.926Z,19.40
2018-06-01T02:46:05.476Z,19.40
2018-06-01T02:48:33.036Z,19.40
2018-06-01T02:51:00.592Z,19.40
2018-06-01T02:53:28.128Z,19.40
2018-06-01T02:55:55.672Z,19.40
2018-06-01T02:58:23.205Z,19.40
2018-06-01T03:00:51.520Z,19.40
2018-06-01T03:03:19.063Z,19.40
2018-06-01T03:05:46.613Z,19.40
2018-06-01T03:08:14.146Z,19.40
2018-06-01T03:10:41.697Z,19.50
2018-06-01T03:13:09.228Z,19.50
2018-06-01T03:15:36.775Z,19.50
2018-06-01T03:18:04.291Z,19.50
2018-06-01T03:20:32.599Z,19.50
2018-06-01T03:23:00.130Z,19.50
2018-06-01T03:25:28.453Z,19.50
2018-06-01T03:27:55.996Z,19.50
2018-06-01T03:30:23.539Z,19.50
2018-06-01T03:32:51.848Z,19.50
2018-06-01T03:35:19.412Z,19.50
2018-06-01T03:37:46.944Z,19.50
2018-06-01T03:40:14.496Z,19.60
2018-06-01T03:42:42.811Z,19.70
2018-06-01T03:45:10.328Z,19.60
2018-06-01T03:47:38.652Z,19.70
2018-06-01T03:50:06.282Z,19.60
2018-06-01T03:52:34.591Z,19.80
2018-06-01T03:55:02.118Z,19.70
2018-06-01T03:57:29.675Z,19.80
2018-06-01T03:59:57.970Z,19.80
2018-06-01T04:02:25.527Z,19.80
2018-06-01T04:04:53.064Z,19.80
2018-06-01T04:07:21.384Z,19.90
2018-06-01T04:09:48.926Z,19.90
2018-06-01T04:12:16.536Z,19.90
2018-06-01T04:14:44.104Z,19.90
2018-06-01T04:17:11.672Z,20.00
2018-06-01T04:19:39.210Z,20.10
2018-06-01T04:22:06.759Z,20.20
2018-06-01T04:24:35.062Z,20.50
2018-06-01T04:27:02.617Z,20.50
2018-06-01T04:29:30.171Z,21.10
2018-06-01T04:31:57.718Z,22.60
2018-06-01T04:34:25.244Z,23.70
2018-06-01T04:36:52.841Z,24.60
2018-06-01T04:39:20.398Z,25.40
2018-06-01T04:41:47.948Z,25.60
2018-06-01T04:44:15.486Z,26.00
2018-06-01T04:46:43.036Z,26.50
2018-06-01T04:49:11.353Z,27.50
2018-06-01T04:51:38.928Z,27.50
2018-06-01T04:54:07.233Z,27.20
2018-06-01T04:56:34.757Z,27.20
2018-06-01T04:59:02.289Z,27.90
2018-06-01T05:01:29.818Z,27.70
2018-06-01T05:03:57.373Z,27.60
2018-06-01T05:06:24.972Z,27.60
2018-06-01T05:08:52.571Z,28.10
2018-06-01T05:11:20.096Z,28.90
2018-06-01T05:13:47.644Z,28.50
2018-06-01T05:16:15.960Z,29.50
2018-06-01T05:18:43.520Z,29.50
2018-06-01T05:21:11.072Z,29.50
2018-06-01T05:23:38.662Z,29.90
2018-06-01T05:26:06.189Z,30.40
2018-06-01T05:28:33.746Z,30.10
2018-06-01T05:31:01.275Z,30.10
2018-06-01T05:33:29.597Z,30.30
2018-06-01T05:35:57.127Z,30.20
2018-06-01T05:38:24.677Z,30.60
2018-06-01T05:40:52.975Z,31.00
2018-06-01T05:43:20.515Z,31.00
2018-06-01T05:45:48.808Z,31.90
2018-06-01T05:48:16.352Z,31.90
2018-06-01T05:50:44.654Z,31.50
2018-06-01T05:53:12.203Z,31.50
2018-06-01T05:55:40.483Z,31.50
2018-06-01T05:58:08.960Z,31.50
2018-06-01T06:00:37.256Z,30.10
2018-06-01T06:03:04.808Z,30.00
2018-06-01T06:05:32.336Z,30.20
2018-06-01T06:07:59.903Z,30.90
2018-06-01T06:10:28.203Z,30.20
2018-06-01T06:12:55.739Z,30.20
2018-06-01T06:15:24.069Z,31.70
2018-06-01T06:17:51.672Z,31.70
2018-06-01T06:20:19.184Z,31.00
2018-06-01T06:22:46.708Z,31.70
2018-06-01T06:25:15.020Z,31.60
2018-06-01T06:27:42.553Z,31.70
2018-06-01T06:30:10.104Z,30.90
2018-06-01T06:32:39.391Z,32.00
2018-06-01T06:35:06.935Z,31.90
2018-06-01T06:37:34.466Z,31.40
2018-06-01T06:40:02.016Z,32.60
2018-06-01T06:42:29.561Z,32.20
2018-06-01T06:44:57.108Z,32.60
2018-06-01T06:47:24.638Z,31.80
2018-06-01T06:49:52.194Z,31.80
2018-06-01T06:52:20.692Z,32.40
2018-06-01T06:54:48.254Z,32.70
2018-06-01T06:57:15.790Z,32.40
2018-06-01T06:59:43.337Z,32.70
2018-06-01T07:02:10.864Z,32.80
2018-06-01T07:04:38.399Z,32.70
2018-06-01T07:07:06.696Z,33.00
2018-06-01T07:09:34.252Z,32.90
2018-06-01T07:12:01.785Z,32.70
2018-06-01T07:14:29.348Z,32.60
2018-06-01T07:16:57.653Z,32.80
2018-06-01T07:19:25.195Z,32.90
2018-06-01T07:21:53.490Z,33.40
2018-06-01T07:24:21.184Z,33.40
2018-06-01T07:26:48.703Z,33.30
2018-06-01T08:54:14.245Z,33.50
2018-06-01T08:56:41.856Z,34.60
2018-06-01T08:59:10.452Z,34.50
2018-06-01T09:01:37.942Z,34.90
2018-06-01T09:04:05.502Z,34.80
2018-06-01T09:06:33.041Z,34.90
2018-06-01T09:09:00.650Z,34.50
2018-06-01T09:11:28.182Z,33.50
2018-06-01T09:13:56.023Z,33.80
2018-06-01T09:16:23.581Z,34.30
2018-06-01T09:18:51.922Z,35.70
2018-06-01T09:21:19.454Z,35.60
2018-06-01T09:23:47.116Z,35.40
2018-06-01T09:26:16.588Z,35.20
2018-06-01T09:28:44.115Z,34.60
2018-06-01T09:31:11.659Z,34.10
2018-06-01T09:33:39.207Z,35.10
2018-06-01T09:36:06.770Z,35.80
2018-06-01T09:38:34.301Z,36.20
2018-06-01T09:41:01.877Z,35.90
2018-06-01T09:43:29.416Z,35.80
2018-06-01T09:45:57.106Z,35.40
2018-06-01T09:48:24.636Z,35.50
2018-06-01T09:50:53.766Z,35.00
2018-06-01T09:53:21.307Z,35.00
2018-06-01T09:55:48.852Z,34.80
2018-06-01T09:58:16.392Z,34.70
2018-06-01T10:00:49.603Z,34.20
2018-06-01T10:03:17.917Z,33.90
2018-06-01T10:05:45.656Z,33.90
2018-06-01T10:08:13.187Z,33.50
2018-06-01T10:10:40.723Z,33.10
2018-06-01T10:13:08.295Z,32.80
2018-06-01T10:15:35.873Z,32.20
2018-06-01T10:18:03.399Z,32.50
2018-06-01T10:20:31.801Z,33.90
2018-06-01T10:22:59.362Z,33.90
2018-06-01T10:25:26.893Z,33.40
2018-06-01T10:27:54.452Z,33.60
2018-06-01T10:30:21.985Z,33.20
2018-06-01T10:32:49.553Z,33.00
2018-06-01T10:35:17.091Z,32.90
2018-06-01T10:37:45.728Z,32.90
2018-06-01T10:40:13.283Z,33.10
2018-06-01T10:42:40.835Z,34.00
2018-06-01T10:45:08.394Z,34.80
2018-06-01T10:47:35.934Z,35.10
2018-06-01T10:50:03.472Z,35.30
2018-06-01T10:52:31.987Z,34.30
2018-06-01T10:54:59.566Z,34.20
2018-06-01T10:57:27.108Z,34.10
2018-06-01T10:59:54.671Z,33.50
2018-06-01T11:02:22.207Z,33.60
2018-06-01T11:04:49.751Z,33.70
2018-06-01T11:07:18.057Z,35.20
2018-06-01T11:09:45.612Z,35.20
2018-06-01T11:12:13.137Z,35.50
2018-06-01T11:14:40.679Z,35.50
2018-06-01T11:17:08.208Z,35.70
2018-06-01T11:19:35.837Z,36.00
2018-06-01T11:22:03.380Z,35.70
2018-06-01T11:24:31.857Z,36.00
2018-06-01T11:26:59.395Z,36.00
2018-06-01T11:29:26.969Z,35.60
2018-06-01T11:31:54.494Z,35.40
2018-06-01T11:34:22.073Z,35.00
2018-06-01T11:36:49.607Z,34.00
2018-06-01T11:39:17.148Z,34.40
2018-06-01T11:41:44.676Z,34.60
2018-06-01T11:44:12.221Z,34.80
2018-06-01T11:46:40.262Z,35.30
2018-06-01T11:49:07.836Z,35.40
2018-06-01T11:51:36.353Z,35.70
2018-06-01T11:54:04.670Z,35.60
2018-06-01T11:56:32.230Z,35.60
2018-06-01T11:58:59.771Z,35.80
2018-06-01T12:01:27.331Z,35.50
2018-06-01T12:03:55.720Z,35.30
2018-06-01T12:06:25.216Z,35.20
2018-06-01T12:08:52.751Z,35.70
2018-06-01T12:11:20.308Z,35.70
2018-06-01T12:13:47.827Z,35.60
2018-06-01T12:16:15.400Z,35.50
2018-06-01T12:18:42.922Z,34.70
2018-06-01T12:21:10.485Z,34.60
2018-06-01T12:23:38.939Z,35.00
2018-06-01T12:26:06.496Z,35.30
2018-06-01T12:28:34.035Z,35.40
2018-06-01T12:31:01.584Z,36.10
2018-06-01T12:33:29.117Z,36.20
2018-06-01T12:35:56.680Z,36.60
2018-06-01T12:38:24.351Z,36.60
2018-06-01T12:40:51.904Z,36.40
2018-06-01T12:43:19.452Z,36.00
2018-06-01T12:45:47.014Z,35.80
2018-06-01T12:48:14.646Z,35.70
2018-06-01T12:50:42.183Z,35.40
2018-06-01T12:53:09.725Z,34.30
2018-06-01T12:55:37.269Z,34.20
2018-06-01T12:58:05.784Z,34.20
2018-06-01T13:00:33.419Z,34.40
2018-06-01T13:03:00.944Z,34.40
2018-06-01T13:05:29.297Z,34.30
2018-06-01T13:07:56.863Z,34.20
2018-06-01T13:10:24.459Z,34.10
2018-06-01T13:12:52.004Z,34.10
2018-06-01T13:15:20.320Z,34.20
2018-06-01T13:17:47.896Z,34.20
2018-06-01T13:20:15.485Z,34.10
2018-06-01T13:22:43.038Z,34.30
2018-06-01T13:25:10.596Z,33.60
2018-06-01T13:27:38.785Z,33.10
2018-06-01T13:30:07.082Z,32.40
2018-06-01T13:32:34.634Z,32.40
2018-06-01T13:35:02.943Z,31.60
2018-06-01T13:37:30.492Z,31.60
2018-06-01T13:39:58.029Z,31.40
2018-06-01T13:42:26.365Z,30.90
2018-06-01T13:44:53.899Z,30.90
2018-06-01T13:47:21.472Z,31.00
2018-06-01T13:49:49.043Z,31.20
2018-06-01T13:52:17.394Z,31.20
2018-06-01T13:54:44.929Z,31.20
2018-06-01T13:57:13.242Z,31.50
2018-06-01T13:59:40.781Z,31.50
2018-06-01T14:02:08.350Z,31.70
2018-06-01T14:04:35.891Z,31.60
2018-06-01T14:07:04.222Z,31.90
2018-06-01T14:09:31.763Z,31.90
2018-06-01T14:11:59.382Z,32.00
2018-06-01T14:14:27.682Z,32.00
2018-06-01T14:16:55.225Z,31.90
2018-06-01T14:19:23.566Z,31.70
2018-06-01T14:21:51.106Z,31.80
2018-06-01T14:24:18.635Z,31.80
2018-06-01T14:26:46.164Z,31.40
2018-06-01T14:29:13.748Z,31.30
2018-06-01T14:31:42.034Z,31.30
2018-06-01T14:34:09.593Z,31.30
2018-06-01T14:36:37.140Z,31.40
2018-06-01T14:39:05.662Z,31.50
2018-06-01T14:41:33.231Z,31.40
2018-06-01T14:44:00.882Z,31.00
2018-06-01T14:46:28.418Z,31.10
2018-06-01T14:48:56.736Z,31.00
2018-06-01T14:51:24.339Z,31.00
2018-06-01T14:53:51.948Z,30.80
2018-06-01T14:56:19.500Z,30.80
2018-06-01T14:58:47.053Z,30.70
2018-06-01T15:01:14.633Z,30.60
2018-06-01T15:03:42.187Z,30.70
2018-06-01T15:06:09.757Z,30.90
2018-06-01T15:08:37.315Z,31.00
2018-06-01T15:11:04.847Z,30.80
2018-06-01T15:13:32.418Z,30.80
2018-06-01T15:15:59.946Z,30.70
2018-06-01T15:18:28.267Z,30.60
2018-06-01T15:20:56.134Z,30.50
2018-06-01T15:23:23.682Z,30.70
2018-06-01T15:25:51.206Z,31.10
2018-06-01T15:28:19.639Z,31.30
2018-06-01T15:30:47.172Z,31.30
2018-06-01T15:33:14.796Z,31.10
2018-06-01T15:35:42.308Z,30.80
2018-06-01T15:38:09.886Z,30.60
2018-06-01T15:40:37.412Z,30.20
2018-06-01T15:43:05.284Z,29.90
2018-06-01T15:45:32.839Z,29.70
2018-06-01T15:48:01.157Z,29.60
2018-06-01T15:50:28.695Z,29.60
2018-06-01T15:52:56.225Z,29.70
2018-06-01T15:55:24.539Z,29.60
2018-06-01T15:57:52.069Z,29.50
2018-06-01T16:00:20.427Z,29.10
2018-06-01T16:02:47.955Z,29.10
2018-06-01T16:05:16.281Z,29.00
2018-06-01T16:07:44.566Z,28.80
2018-06-01T16:10:12.885Z,28.60
2018-06-01T16:12:40.465Z,28.60
2018-06-01T16:15:08.005Z,28.10
2018-06-01T16:17:35.545Z,27.40
2018-06-01T16:20:03.137Z,26.60
2018-06-01T16:22:30.667Z,26.20
2018-06-01T16:24:58.246Z,25.90
2018-06-01T16:27:25.792Z,25.60
2018-06-01T16:29:53.333Z,25.30
2018-06-01T16:32:20.857Z,25.10
2018-06-01T16:34:48.413Z,24.70
2018-06-01T16:37:15.955Z,24.30
2018-06-01T16:39:43.506Z,24.00
2018-06-01T16:42:11.034Z,23.80
2018-06-01T16:44:38.603Z,23.60
2018-06-01T16:47:06.179Z,23.50
2018-06-01T16:49:33.741Z,23.10
2018-06-01T16:52:01.282Z,22.30
2018-06-01T16:54:28.852Z,21.70
2018-06-01T16:56:56.414Z,21.30
2018-06-01T16:59:24.001Z,21.10
2018-06-01T17:01:51.581Z,20.90
2018-06-01T17:04:21.128Z,20.80
2018-06-01T17:06:48.683Z,20.70
2018-06-01T17:09:16.267Z,20.60
2018-06-01T17:11:43.834Z,20.50
2018-06-01T17:14:11.385Z,20.40
2018-06-01T17:16:38.948Z,20.30
2018-06-01T17:19:06.499Z,20.10
2018-06-01T17:21:34.057Z,20.00
2018-06-01T17:24:01.615Z,19.90
2018-06-01T17:26:29.228Z,19.70
2018-06-01T17:29:00.570Z,19.60
2018-06-01T17:31:28.164Z,19.60
2018-06-01T17:33:56.466Z,19.60
2018-06-01T17:36:24.055Z,19.60
2018-06-01T17:38:52.402Z,19.70
2018-06-01T17:41:38.210Z,19.70
2018-06-01T17:44:13.207Z,19.70
2018-06-01T17:46:40.818Z,19.60
2018-06-01T17:49:08.459Z,19.60
2018-06-01T17:51:37.091Z,19.60
2018-06-01T17:54:04.656Z,19.70
2018-06-01T17:56:32.248Z,19.70
2018-06-01T17:58:59.800Z,19.50
2018-06-01T18:01:28.137Z,19.50
2018-06-01T18:03:55.669Z,19.40
2018-06-01T18:06:23.260Z,19.40
2018-06-01T18:08:50.817Z,19.40
2018-06-01T18:11:18.392Z,19.30
2018-06-01T18:13:45.944Z,19.30
2018-06-01T18:16:13.538Z,19.30
2018-06-01T18:18:41.307Z,19.30
2018-06-01T18:21:09.685Z,19.30
2018-06-01T18:23:37.405Z,19.30
2018-06-01T18:26:04.962Z,19.30
2018-06-01T18:28:32.575Z,19.40
2018-06-01T18:31:01.827Z,19.30
2018-06-01T18:33:29.403Z,19.30
2018-06-01T18:35:56.972Z,19.30
2018-06-01T18:38:24.531Z,19.30
2018-06-01T18:40:52.148Z,19.40
2018-06-01T18:43:19.745Z,19.40
2018-06-01T18:45:47.324Z,19.30
2018-06-01T18:48:14.931Z,19.30
2018-06-01T18:50:44.424Z,19.30
2018-06-01T18:53:12.170Z,19.30
2018-06-01T18:55:43.553Z,19.40
2018-06-01T18:58:16.749Z,19.30
2018-06-01T19:00:44.310Z,19.40
2018-06-01T19:03:11.898Z,19.30
2018-06-01T19:05:39.479Z,19.40
2018-06-01T19:08:07.055Z,19.50
2018-06-01T19:10:36.608Z,19.50
2018-06-01T19:13:04.473Z,19.50
2018-06-01T19:15:32.753Z,19.60
2018-06-01T19:18:00.315Z,19.60
2018-06-01T19:20:28.871Z,19.70
2018-06-01T19:22:56.477Z,19.70
2018-06-01T19:25:24.036Z,19.60
2018-06-01T19:27:51.608Z,19.70
2018-06-01T19:30:19.160Z,19.70
2018-06-01T19:32:46.723Z,19.70
2018-06-01T19:35:14.348Z,19.70
2018-06-01T19:37:41.982Z,19.70
2018-06-01T19:40:10.383Z,19.70
2018-06-01T19:42:37.941Z,19.70
2018-06-01T19:45:05.518Z,19.80
2018-06-01T19:47:33.149Z,19.70
2018-06-01T19:50:01.486Z,19.70
2018-06-01T19:52:29.036Z,19.70
2018-06-01T19:54:56.610Z,19.70
2018-06-01T19:57:24.153Z,19.70
2018-06-01T19:59:51.698Z,19.70
2018-06-01T20:02:19.243Z,19.70
2018-06-01T20:04:47.609Z,19.60
2018-06-01T20:07:16.839Z,19.50
2018-06-01T20:09:44.559Z,19.50
2018-06-01T20:12:12.896Z,19.50
2018-06-01T20:14:40.489Z,19.40
2018-06-01T20:17:09.000Z,19.40
2018-06-01T20:19:36.602Z,19.30
2018-06-01T20:22:04.601Z,19.40
2018-06-01T20:24:32.152Z,19.40
2018-06-01T20:27:00.479Z,19.40
2018-06-01T20:29:28.045Z,19.50
2018-06-01T20:31:56.373Z,19.50
2018-06-01T20:34:23.964Z,19.50
2018-06-01T20:36:51.516Z,19.50
2018-06-01T20:39:19.095Z,19.40
2018-06-01T20:41:46.655Z,19.40
2018-06-01T20:44:14.987Z,19.40
2018-06-01T20:46:42.549Z,19.40
2018-06-01T20:49:10.149Z,19.60
2018-06-01T20:51:37.840Z,19.50
2018-06-01T20:54:05.442Z,19.40
2018-06-01T20:56:33.017Z,19.40
2018-06-01T20:59:00.644Z,19.50
2018-06-01T21:01:28.185Z,19.50
2018-06-01T21:03:55.789Z,19.50
2018-06-01T21:06:23.386Z,19.50
2018-06-01T21:08:51.007Z,19.50
2018-06-01T21:11:18.555Z,19.50
2018-06-01T21:13:46.156Z,19.50
2018-06-01T21:16:13.721Z,19.50
2018-06-01T21:18:42.046Z,19.50
2018-06-01T21:21:09.696Z,19.50
2018-06-01T21:23:38.003Z,19.60
2018-06-01T21:26:05.576Z,19.50
2018-06-01T21:28:33.133Z,19.50
2018-06-01T21:31:00.792Z,19.50
2018-06-01T21:33:28.356Z,19.60
2018-06-01T21:35:55.926Z,19.60
2018-06-01T21:38:23.624Z,19.50
2018-06-01T21:40:51.183Z,19.60
2018-06-01T21:43:19.493Z,19.50
2018-06-01T21:45:47.074Z,19.50
2018-06-01T21:48:14.635Z,19.50
2018-06-01T21:50:42.244Z,19.50
2018-06-01T21:53:09.841Z,19.40
2018-06-01T21:55:37.486Z,19.40
2018-06-01T22:00:09.047Z,19.50
2018-06-01T22:02:36.592Z,19.50
2018-06-01T22:05:04.242Z,19.50
2018-06-01T22:07:32.602Z,19.50
2018-06-01T22:10:00.169Z,19.50
2018-06-01T22:12:27.752Z,19.60
2018-06-01T22:14:55.294Z,19.50
2018-06-01T22:17:22.869Z,19.50
2018-06-01T22:19:51.195Z,19.50
2018-06-01T22:22:18.762Z,19.60
2018-06-01T22:24:46.323Z,19.60
2018-06-01T22:27:13.899Z,19.60
2018-06-01T22:29:41.479Z,19.50
2018-06-01T22:32:09.071Z,19.50
2018-06-01T22:34:36.617Z,19.60
2018-06-01T22:37:04.949Z,19.50
2018-06-01T22:39:32.532Z,19.50
2018-06-01T22:42:00.880Z,19.50
2018-06-01T22:44:28.432Z,19.40
2018-06-01T22:46:56.007Z,19.40
2018-06-01T22:49:23.566Z,19.40
2018-06-01T22:51:51.149Z,19.40
2018-06-01T22:54:18.734Z,19.40
2018-06-01T22:56:47.079Z,19.40
2018-06-01T22:59:15.620Z,19.40
2018-06-01T23:01:43.236Z,19.30
2018-06-01T23:04:10.805Z,19.30
2018-06-01T23:06:39.158Z,19.20
2018-06-01T23:09:06.712Z,19.10
2018-06-01T23:11:34.890Z,19.10
2018-06-01T23:14:02.449Z,19.10
2018-06-01T23:16:30.069Z,19.10
2018-06-01T23:18:57.629Z,19.10
2018-06-01T23:21:25.192Z,19.10
2018-06-01T23:23:52.760Z,19.10
2018-06-01T23:26:20.937Z,19.00
2018-06-01T23:28:48.492Z,19.00
2018-06-01T23:31:16.060Z,19.00
2018-06-01T23:33:43.628Z,19.00
2018-06-01T23:36:11.177Z,19.00
2018-06-01T23:38:38.753Z,19.00
2018-06-01T23:41:06.335Z,19.00
2018-06-01T23:43:33.909Z,19.00
2018-06-01T23:46:01.434Z,19.00
2018-06-01T23:48:29.046Z,19.00
2018-06-01T23:50:57.342Z,19.00
2018-06-01T23:53:24.915Z,18.90
2018-06-01T23:55:52.463Z,18.90
2018-06-01T23:58:20.048Z,18.90
